createdAt,value
2022-12-27T00:00:25.232Z,73.69
2022-12-27T00:03:13.253Z,73.67
2022-12-27T00:05:45.782Z,73.73
2022-12-27T00:08:14.410Z,73.58
2022-12-27T00:10:42.252Z,73.39
2022-12-27T00:13:10.656Z,73.32
2022-12-27T00:15:38.704Z,73.16
2022-12-27T00:18:06.621Z,73.15
2022-12-27T00:20:34.392Z,73.23
2022-12-27T00:23:02.393Z,73.33
2022-12-27T00:25:30.339Z,73.23
2022-12-27T00:27:58.289Z,73.21
2022-12-27T00:30:26.210Z,73.15
2022-12-27T00:32:54.115Z,73.11
2022-12-27T00:35:22.113Z,73.02
2022-12-27T00:37:49.978Z,73.07
2022-12-27T00:40:17.719Z,73.03
2022-12-27T00:42:45.577Z,73.05
2022-12-27T00:45:13.317Z,73.08
2022-12-27T00:47:41.224Z,73.05
2022-12-27T00:50:09.330Z,73.06
2022-12-27T00:52:37.091Z,73.00
2022-12-27T00:55:05.735Z,72.97
2022-12-27T00:57:33.611Z,72.86
2022-12-27T01:00:07.943Z,72.78
2022-12-27T01:02:37.993Z,72.63
2022-12-27T01:05:06.696Z,72.62
2022-12-27T01:07:34.812Z,72.42
2022-12-27T01:10:02.919Z,72.37
2022-12-27T01:12:30.838Z,72.33
2022-12-27T01:14:58.566Z,72.26
2022-12-27T01:17:26.360Z,72.22
2022-12-27T01:19:54.331Z,72.10
2022-12-27T01:22:22.326Z,72.12
2022-12-27T01:24:50.375Z,72.20
2022-12-27T01:27:18.200Z,72.35
2022-12-27T01:29:46.623Z,72.43
2022-12-27T01:32:14.592Z,72.48
2022-12-27T01:34:42.474Z,72.56
2022-12-27T01:37:10.288Z,72.63
2022-12-27T01:39:38.417Z,72.73
2022-12-27T01:42:29.568Z,72.73
2022-12-27T01:44:58.254Z,72.71
2022-12-27T01:47:31.635Z,72.61
2022-12-27T01:50:17.919Z,72.48
2022-12-27T01:52:55.087Z,72.39
2022-12-27T01:55:32.408Z,72.33
2022-12-27T01:58:36.607Z,72.23
2022-12-27T02:01:07.591Z,72.35
2022-12-27T02:03:39.749Z,72.29
2022-12-27T02:06:11.259Z,72.28
2022-12-27T02:08:42.651Z,72.17
2022-12-27T02:11:13.816Z,72.08
2022-12-27T02:13:44.597Z,72.12
2022-12-27T02:16:18.347Z,72.20
2022-12-27T02:18:47.230Z,72.38
2022-12-27T02:21:21.283Z,72.52
2022-12-27T02:24:13.253Z,72.52
2022-12-27T02:27:02.724Z,72.54
2022-12-27T02:29:37.320Z,72.57
2022-12-27T02:32:11.723Z,72.63
2022-12-27T02:34:58.398Z,72.56
2022-12-27T02:37:32.321Z,72.66
2022-12-27T02:40:22.847Z,72.61
2022-12-27T02:43:12.075Z,72.67
2022-12-27T02:46:02.738Z,72.66
2022-12-27T02:48:49.844Z,72.65
2022-12-27T02:52:01.139Z,72.70
2022-12-27T02:55:08.617Z,72.75
2022-12-27T02:58:01.537Z,72.80
2022-12-27T03:01:05.249Z,72.85
2022-12-27T03:03:49.487Z,72.90
2022-12-27T03:06:39.268Z,72.82
2022-12-27T03:09:51.243Z,72.84
2022-12-27T03:12:48.056Z,72.51
2022-12-27T03:15:50.139Z,72.49
2022-12-27T03:18:25.648Z,72.09
2022-12-27T03:21:15.891Z,71.95
2022-12-27T03:24:05.283Z,71.72
2022-12-27T03:26:36.997Z,71.97
2022-12-27T03:29:26.460Z,71.87
2022-12-27T03:32:17.906Z,71.79
2022-12-27T03:34:53.544Z,71.70
2022-12-27T03:37:46.436Z,71.59
2022-12-27T03:41:06.483Z,71.42
2022-12-27T03:43:36.873Z,71.39
2022-12-27T03:46:35.923Z,71.38
2022-12-27T03:49:11.814Z,71.47
2022-12-27T03:51:56.137Z,71.56
2022-12-27T03:54:32.460Z,71.37
2022-12-27T03:57:08.470Z,71.38
2022-12-27T03:59:36.679Z,70.92
2022-12-27T04:02:05.783Z,70.69
2022-12-27T04:04:34.407Z,70.29
2022-12-27T04:07:02.624Z,70.38
2022-12-27T04:09:49.459Z,70.31
2022-12-27T04:12:36.714Z,70.17
2022-12-27T04:15:24.014Z,70.13
2022-12-27T04:18:10.853Z,70.12
2022-12-27T04:20:58.100Z,70.32
2022-12-27T04:23:44.574Z,70.51
2022-12-27T04:26:31.280Z,70.74
2022-12-27T04:29:17.931Z,70.87
2022-12-27T04:32:04.677Z,70.61
2022-12-27T04:34:44.243Z,70.15
2022-12-27T04:37:20.219Z,70.14
2022-12-27T04:40:07.460Z,69.87
2022-12-27T04:42:54.333Z,69.91
2022-12-27T04:45:41.096Z,70.04
2022-12-27T04:48:33.067Z,70.18
2022-12-27T04:51:19.778Z,70.25
2022-12-27T04:54:06.465Z,70.17
2022-12-27T04:56:34.394Z,70.09
2022-12-27T04:59:21.094Z,70.03
2022-12-27T05:02:04.788Z,70.22
2022-12-27T05:04:36.989Z,70.17
2022-12-27T05:07:27.191Z,70.21
2022-12-27T05:10:14.492Z,70.40
2022-12-27T05:13:01.182Z,70.46
2022-12-27T05:15:29.230Z,70.68
2022-12-27T05:17:58.087Z,70.77
2022-12-27T05:20:26.024Z,70.60
2022-12-27T05:23:12.813Z,70.84
2022-12-27T05:25:41.940Z,70.85
2022-12-27T05:28:11.931Z,71.07
2022-12-27T05:30:42.333Z,71.33
2022-12-27T05:33:11.150Z,71.37
2022-12-27T05:35:39.452Z,71.15
2022-12-27T05:38:07.919Z,71.23
2022-12-27T05:40:36.329Z,71.22
2022-12-27T05:43:04.500Z,70.90
2022-12-27T05:45:32.992Z,71.00
2022-12-27T05:48:00.920Z,70.92
2022-12-27T05:50:28.953Z,70.32
2022-12-27T05:53:11.719Z,69.27
2022-12-27T05:55:40.301Z,69.04
2022-12-27T05:58:08.194Z,68.14
2022-12-27T06:00:36.203Z,67.97
2022-12-27T06:03:04.373Z,67.86
2022-12-27T06:05:32.440Z,67.66
2022-12-27T06:08:00.428Z,67.45
2022-12-27T06:10:28.410Z,67.44
2022-12-27T06:12:56.403Z,67.68
2022-12-27T06:15:24.647Z,67.85
2022-12-27T06:17:52.750Z,68.08
2022-12-27T06:20:21.884Z,68.28
2022-12-27T06:22:49.785Z,67.64
2022-12-27T06:25:17.782Z,67.65
2022-12-27T06:27:46.096Z,67.89
2022-12-27T06:30:15.475Z,67.48
2022-12-27T06:32:43.375Z,67.23
2022-12-27T06:35:11.367Z,67.10
2022-12-27T06:37:39.513Z,67.19
2022-12-27T06:40:07.830Z,67.44
2022-12-27T06:42:35.823Z,67.60
2022-12-27T06:45:04.024Z,67.65
2022-12-27T06:47:32.281Z,67.69
2022-12-27T06:50:00.223Z,67.74
2022-12-27T06:52:28.301Z,67.55
2022-12-27T06:54:56.291Z,67.23
2022-12-27T06:57:24.446Z,66.85
2022-12-27T06:59:54.141Z,66.94
2022-12-27T07:02:22.628Z,66.98
2022-12-27T07:04:50.667Z,66.80
2022-12-27T07:07:18.540Z,67.03
2022-12-27T07:09:46.613Z,67.15
2022-12-27T07:12:14.569Z,67.28
2022-12-27T07:14:42.538Z,67.48
2022-12-27T07:17:10.483Z,67.66
2022-12-27T07:19:38.598Z,67.66
2022-12-27T07:22:06.663Z,67.65
2022-12-27T07:24:34.593Z,67.50
2022-12-27T07:27:03.116Z,67.00
2022-12-27T07:29:31.497Z,66.63
2022-12-27T07:31:59.503Z,66.72
2022-12-27T07:34:27.513Z,66.56
2022-12-27T07:36:55.593Z,66.47
2022-12-27T07:39:23.536Z,66.32
2022-12-27T07:41:51.906Z,66.45
2022-12-27T07:44:19.951Z,66.30
2022-12-27T07:46:47.959Z,65.84
2022-12-27T07:49:18.086Z,65.59
2022-12-27T07:51:46.341Z,65.52
2022-12-27T07:54:14.302Z,65.32
2022-12-27T07:56:42.962Z,65.24
2022-12-27T07:59:13.204Z,65.32
2022-12-27T08:02:00.163Z,65.17
2022-12-27T08:04:29.106Z,65.13
2022-12-27T08:07:03.264Z,64.95
2022-12-27T08:09:35.330Z,64.96
2022-12-27T08:12:03.801Z,64.85
2022-12-27T08:14:31.826Z,64.73
2022-12-27T08:17:05.792Z,64.52
2022-12-27T08:19:34.333Z,64.77
2022-12-27T08:22:02.311Z,64.58
2022-12-27T08:24:30.315Z,63.99
2022-12-27T08:26:58.418Z,63.38
2022-12-27T08:29:26.348Z,62.54
2022-12-27T08:31:54.398Z,61.59
2022-12-27T08:34:22.373Z,61.45
2022-12-27T08:36:56.262Z,61.38
2022-12-27T08:39:24.723Z,61.13
2022-12-27T08:41:54.346Z,61.11
2022-12-27T08:44:22.766Z,61.34
2022-12-27T08:46:50.751Z,61.68
2022-12-27T08:50:25.644Z,62.00
2022-12-27T08:52:56.668Z,61.94
2022-12-27T08:55:26.420Z,62.31
2022-12-27T08:58:03.060Z,61.52
2022-12-27T09:00:32.362Z,60.28
2022-12-27T09:03:00.466Z,59.73
2022-12-27T09:05:30.147Z,59.10
2022-12-27T09:07:59.018Z,58.51
2022-12-27T09:10:27.599Z,57.27
2022-12-27T09:12:55.577Z,55.56
2022-12-27T09:15:23.581Z,54.22
2022-12-27T09:17:51.501Z,52.24
2022-12-27T09:20:19.523Z,50.87
2022-12-27T09:22:47.624Z,49.21
2022-12-27T09:25:15.810Z,47.69
2022-12-27T09:27:44.026Z,47.53
2022-12-27T09:30:12.369Z,46.98
2022-12-27T09:32:40.408Z,47.59
2022-12-27T09:35:08.770Z,47.07
2022-12-27T09:37:36.726Z,46.41
2022-12-27T09:40:05.185Z,46.11
2022-12-27T09:43:07.516Z,45.22
2022-12-27T09:45:45.660Z,44.69
2022-12-27T09:48:21.843Z,44.01
2022-12-27T09:50:58.341Z,43.35
2022-12-27T09:53:51.286Z,42.47
2022-12-27T09:56:54.102Z,41.47
2022-12-27T09:59:44.387Z,41.17
2022-12-27T10:02:20.309Z,40.87
2022-12-27T10:08:23.770Z,40.23
2022-12-27T10:11:04.798Z,39.22
2022-12-27T10:13:57.031Z,38.05
2022-12-27T10:16:46.427Z,37.18
2022-12-27T10:19:33.033Z,36.80
2022-12-27T10:22:33.744Z,36.68
2022-12-27T10:25:04.939Z,35.28
2022-12-27T10:27:34.160Z,34.34
2022-12-27T10:30:15.311Z,33.95
2022-12-27T10:32:47.078Z,33.71
2022-12-27T10:35:22.875Z,32.81
2022-12-27T10:37:54.068Z,32.26
2022-12-27T10:40:48.562Z,31.57
2022-12-27T10:43:33.535Z,31.72
2022-12-27T10:46:11.727Z,30.97
2022-12-27T10:49:18.947Z,31.50
2022-12-27T10:51:39.679Z,31.86
2022-12-27T10:54:15.059Z,30.89
2022-12-27T10:56:44.406Z,31.01
2022-12-27T10:59:16.634Z,31.02
2022-12-27T11:01:46.887Z,30.62
2022-12-27T11:04:21.023Z,30.16
2022-12-27T11:07:02.269Z,31.46
2022-12-27T11:09:35.039Z,32.83
2022-12-27T11:12:26.154Z,34.08
2022-12-27T11:15:11.821Z,34.75
2022-12-27T11:17:47.359Z,35.54
2022-12-27T11:20:23.929Z,36.70
2022-12-27T11:23:13.584Z,36.63
2022-12-27T11:26:01.764Z,36.64
2022-12-27T11:28:36.973Z,35.98
2022-12-27T11:31:18.142Z,36.33
2022-12-27T11:33:50.142Z,36.93
2022-12-27T11:36:29.486Z,37.68
2022-12-27T11:38:57.625Z,38.48
2022-12-27T11:41:45.007Z,38.95
2022-12-27T11:44:33.226Z,39.22
2022-12-27T11:47:42.001Z,38.81
2022-12-27T11:50:28.519Z,39.07
2022-12-27T11:53:24.073Z,38.60
2022-12-27T11:56:16.332Z,38.37
2022-12-27T11:59:03.368Z,38.37
2022-12-27T12:02:04.956Z,38.84
2022-12-27T12:05:21.488Z,39.38
2022-12-27T12:08:22.810Z,39.65
2022-12-27T12:11:24.017Z,40.04
2022-12-27T12:14:20.724Z,40.41
2022-12-27T12:17:14.326Z,41.02
2022-12-27T12:20:04.206Z,41.30
2022-12-27T12:22:58.230Z,41.63
2022-12-27T12:25:58.813Z,41.65
2022-12-27T12:29:01.388Z,41.75
2022-12-27T12:31:55.712Z,41.68
2022-12-27T12:34:48.221Z,41.88
2022-12-27T12:37:37.935Z,42.53
2022-12-27T12:40:06.956Z,42.79
2022-12-27T12:43:06.420Z,42.93
2022-12-27T12:46:10.752Z,43.39
2022-12-27T12:49:10.349Z,43.57
2022-12-27T12:51:56.096Z,43.84
2022-12-27T12:54:52.328Z,43.95
2022-12-27T12:57:44.160Z,42.38
2022-12-27T13:00:44.594Z,40.73
2022-12-27T13:03:33.526Z,39.96
2022-12-27T13:06:21.799Z,39.63
2022-12-27T13:09:13.984Z,40.22
2022-12-27T13:12:05.040Z,40.97
2022-12-27T13:15:07.110Z,41.91
2022-12-27T13:18:11.787Z,42.68
2022-12-27T13:20:48.943Z,43.59
2022-12-27T13:23:56.142Z,44.04
2022-12-27T13:26:27.105Z,44.49
2022-12-27T13:29:13.992Z,44.82
2022-12-27T13:31:45.496Z,45.29
2022-12-27T13:34:59.082Z,45.56
2022-12-27T13:37:33.173Z,45.63
2022-12-27T13:40:29.891Z,45.73
2022-12-27T13:43:25.993Z,45.87
2022-12-27T13:46:54.610Z,46.11
2022-12-27T13:49:22.542Z,46.20
2022-12-27T13:51:54.848Z,44.86
2022-12-27T13:54:29.735Z,43.69
2022-12-27T13:57:30.772Z,43.14
2022-12-27T14:00:21.089Z,42.64
2022-12-27T14:03:27.626Z,42.80
2022-12-27T14:06:21.099Z,43.66
2022-12-27T14:08:55.153Z,44.12
2022-12-27T14:11:31.285Z,44.46
2022-12-27T14:14:02.775Z,44.94
2022-12-27T14:17:04.714Z,44.98
2022-12-27T14:19:47.176Z,44.89
2022-12-27T14:22:29.723Z,45.08
2022-12-27T14:25:00.665Z,45.48
2022-12-27T14:28:11.101Z,45.71
2022-12-27T14:31:22.578Z,46.23
2022-12-27T14:34:17.566Z,46.57
2022-12-27T14:37:06.935Z,46.89
2022-12-27T14:39:52.121Z,47.07
2022-12-27T14:42:43.731Z,47.62
2022-12-27T14:45:42.059Z,47.63
2022-12-27T14:48:30.783Z,47.95
2022-12-27T14:51:59.253Z,48.27
2022-12-27T14:54:30.305Z,48.48
2022-12-27T14:57:11.658Z,48.80
2022-12-27T15:00:01.301Z,48.82
2022-12-27T15:02:50.615Z,48.70
2022-12-27T15:05:39.289Z,48.94
2022-12-27T15:08:17.493Z,49.04
2022-12-27T15:11:32.001Z,49.09
2022-12-27T15:14:19.921Z,49.48
2022-12-27T15:17:07.209Z,49.43
2022-12-27T15:19:55.183Z,49.53
2022-12-27T15:22:24.082Z,49.47
2022-12-27T15:24:59.632Z,49.81
2022-12-27T15:27:47.158Z,49.81
2022-12-27T15:30:25.317Z,49.82
2022-12-27T15:32:57.175Z,50.02
2022-12-27T15:35:46.233Z,50.05
2022-12-27T15:38:35.544Z,50.08
2022-12-27T15:41:06.602Z,50.26
2022-12-27T15:44:15.188Z,50.23
2022-12-27T15:47:05.205Z,50.43
2022-12-27T15:49:54.881Z,50.43
2022-12-27T15:52:58.670Z,50.35
2022-12-27T15:55:39.909Z,50.24
2022-12-27T15:58:26.719Z,50.21
2022-12-27T16:01:22.044Z,50.29
2022-12-27T16:03:54.060Z,49.99
2022-12-27T16:06:34.447Z,50.23
2022-12-27T16:09:25.450Z,50.12
2022-12-27T16:12:10.618Z,50.04
2022-12-27T16:14:40.900Z,50.16
2022-12-27T16:17:24.840Z,50.23
2022-12-27T16:20:11.453Z,50.23
2022-12-27T16:22:58.245Z,50.22
2022-12-27T16:25:41.419Z,50.28
2022-12-27T16:28:24.690Z,50.28
2022-12-27T16:30:55.705Z,50.16
2022-12-27T16:33:26.682Z,50.30
2022-12-27T16:36:20.298Z,50.41
2022-12-27T16:39:17.760Z,50.43
2022-12-27T16:41:54.024Z,50.68
2022-12-27T16:44:48.487Z,50.71
2022-12-27T16:47:33.429Z,50.70
2022-12-27T16:50:34.778Z,50.88
2022-12-27T16:53:34.603Z,50.99
2022-12-27T16:56:21.232Z,51.00
2022-12-27T16:58:53.375Z,50.96
2022-12-27T17:01:26.371Z,51.16
2022-12-27T17:04:04.443Z,51.29
2022-12-27T17:06:40.173Z,51.37
2022-12-27T17:09:09.281Z,51.59
2022-12-27T17:11:48.256Z,51.84
2022-12-27T17:14:25.409Z,51.99
2022-12-27T17:16:58.869Z,52.33
2022-12-27T17:19:44.359Z,52.36
2022-12-27T17:22:16.553Z,52.38
2022-12-27T17:24:47.054Z,52.27
2022-12-27T17:27:41.267Z,52.33
2022-12-27T17:30:19.318Z,52.37
2022-12-27T17:32:47.103Z,52.44
2022-12-27T17:35:29.456Z,52.38
2022-12-27T17:38:16.371Z,52.18
2022-12-27T17:40:56.932Z,52.40
2022-12-27T17:44:12.320Z,52.59
2022-12-27T17:46:55.364Z,52.69
2022-12-27T17:49:29.436Z,52.84
2022-12-27T17:52:18.611Z,52.83
2022-12-27T17:55:06.918Z,52.64
2022-12-27T17:57:54.437Z,52.57
2022-12-27T18:00:29.751Z,52.69
2022-12-27T18:03:00.771Z,52.90
2022-12-27T18:05:32.821Z,52.97
2022-12-27T18:08:07.295Z,53.10
2022-12-27T18:10:36.939Z,53.15
2022-12-27T18:13:18.825Z,53.20
2022-12-27T18:15:50.647Z,53.22
2022-12-27T18:18:30.622Z,53.35
2022-12-27T18:21:01.271Z,53.29
2022-12-27T18:23:29.686Z,53.43
2022-12-27T18:26:12.768Z,53.41
2022-12-27T18:28:42.481Z,53.50
2022-12-27T18:31:35.514Z,53.55
2022-12-27T18:34:46.175Z,53.36
2022-12-27T18:37:19.225Z,53.40
2022-12-27T18:40:00.640Z,53.45
2022-12-27T18:42:35.602Z,53.63
2022-12-27T18:45:22.848Z,53.76
2022-12-27T18:48:00.877Z,53.92
2022-12-27T18:50:32.245Z,53.97
2022-12-27T18:53:08.051Z,54.01
2022-12-27T18:55:56.988Z,54.16
2022-12-27T18:58:26.076Z,54.24
2022-12-27T19:01:26.736Z,54.32
2022-12-27T19:04:14.733Z,54.51
2022-12-27T19:06:46.000Z,54.72
2022-12-27T19:09:19.243Z,54.94
2022-12-27T19:11:53.439Z,55.01
2022-12-27T19:14:30.501Z,55.09
2022-12-27T19:17:04.123Z,55.09
2022-12-27T19:19:36.613Z,55.35
2022-12-27T19:22:30.406Z,55.35
2022-12-27T19:25:07.751Z,55.79
2022-12-27T19:27:38.001Z,55.77
2022-12-27T19:30:31.806Z,55.75
2022-12-27T19:33:01.067Z,56.18
2022-12-27T19:35:31.226Z,56.20
2022-12-27T19:38:02.283Z,56.26
2022-12-27T19:40:40.123Z,56.32
2022-12-27T19:43:10.466Z,56.34
2022-12-27T19:45:46.342Z,56.43
2022-12-27T19:48:15.506Z,56.66
2022-12-27T19:50:50.811Z,56.75
2022-12-27T19:53:32.477Z,56.63
2022-12-27T19:56:03.769Z,56.69
2022-12-27T19:58:32.812Z,56.98
2022-12-27T20:01:02.335Z,56.99
2022-12-27T20:03:36.437Z,57.17
2022-12-27T20:06:13.921Z,57.10
2022-12-27T20:08:49.627Z,57.36
2022-12-27T20:11:20.634Z,57.77
2022-12-27T20:13:49.088Z,57.93
2022-12-27T20:16:21.129Z,57.93
2022-12-27T20:18:49.406Z,58.07
2022-12-27T20:21:18.141Z,57.94
2022-12-27T20:23:49.172Z,57.97
2022-12-27T20:26:18.656Z,58.00
2022-12-27T20:29:21.043Z,57.85
2022-12-27T20:31:52.390Z,57.77
2022-12-27T20:34:20.746Z,57.93
2022-12-27T20:36:48.943Z,58.21
2022-12-27T20:39:18.202Z,58.10
2022-12-27T20:41:46.352Z,58.41
2022-12-27T20:44:25.286Z,58.50
2022-12-27T20:46:58.111Z,58.76
2022-12-27T20:49:34.271Z,58.79
2022-12-27T20:52:07.192Z,58.66
2022-12-27T20:54:35.271Z,58.89
2022-12-27T20:57:03.342Z,58.92
2022-12-27T20:59:36.357Z,59.09
2022-12-27T21:02:04.722Z,59.15
2022-12-27T21:04:38.316Z,59.09
2022-12-27T21:07:12.289Z,59.07
2022-12-27T21:09:40.293Z,59.13
2022-12-27T21:12:14.516Z,59.19
2022-12-27T21:14:47.605Z,59.37
2022-12-27T21:17:20.203Z,59.31
2022-12-27T21:19:48.128Z,59.34
2022-12-27T21:22:18.483Z,59.46
2022-12-27T21:24:47.447Z,59.62
2022-12-27T21:27:24.270Z,59.65
2022-12-27T21:29:52.106Z,59.80
2022-12-27T21:32:21.197Z,59.87
2022-12-27T21:34:50.386Z,59.86
2022-12-27T21:37:18.528Z,60.05
2022-12-27T21:39:46.546Z,60.23
2022-12-27T21:42:23.251Z,60.10
2022-12-27T21:44:56.208Z,60.21
2022-12-27T21:47:29.319Z,60.47
2022-12-27T21:49:57.382Z,60.45
2022-12-27T21:52:26.472Z,60.32
2022-12-27T21:55:03.284Z,60.30
2022-12-27T21:57:31.388Z,60.41
2022-12-27T21:59:59.495Z,60.13
2022-12-27T22:02:32.402Z,60.06
2022-12-27T22:05:00.720Z,59.82
2022-12-27T22:08:02.215Z,59.82
2022-12-27T22:10:30.161Z,59.85
2022-12-27T22:12:59.169Z,60.01
2022-12-27T22:15:28.259Z,59.93
2022-12-27T22:17:57.495Z,59.79
2022-12-27T22:20:25.527Z,59.84
2022-12-27T22:22:55.597Z,59.88
2022-12-27T22:25:28.095Z,59.95
2022-12-27T22:27:56.124Z,60.07
2022-12-27T22:30:24.392Z,60.28
2022-12-27T22:32:54.542Z,60.18
2022-12-27T22:35:23.632Z,60.20
2022-12-27T22:37:59.145Z,60.03
2022-12-27T22:40:43.235Z,59.93
2022-12-27T22:43:14.804Z,59.90
2022-12-27T22:45:53.924Z,59.92
2022-12-27T22:48:22.245Z,59.78
2022-12-27T22:50:51.626Z,59.67
2022-12-27T22:53:24.077Z,59.70
2022-12-27T22:55:54.098Z,59.53
2022-12-27T22:58:24.142Z,59.34
2022-12-27T23:00:54.255Z,59.31
2022-12-27T23:03:22.266Z,59.46
2022-12-27T23:05:59.069Z,59.55
2022-12-27T23:08:28.264Z,59.63
2022-12-27T23:11:06.553Z,59.74
2022-12-27T23:13:35.474Z,59.92
2022-12-27T23:16:05.747Z,60.31
2022-12-27T23:18:36.762Z,60.43
2022-12-27T23:21:21.408Z,60.53
2022-12-27T23:23:53.193Z,60.66
2022-12-27T23:26:23.367Z,60.60
2022-12-27T23:28:54.863Z,60.77
2022-12-27T23:31:24.604Z,60.85
2022-12-27T23:33:55.137Z,60.80
2022-12-27T23:36:31.975Z,60.98
2022-12-27T23:39:00.031Z,61.01
2022-12-27T23:41:30.134Z,61.29
2022-12-27T23:44:00.934Z,61.51
2022-12-27T23:46:33.220Z,61.37
2022-12-27T23:49:03.767Z,61.80
2022-12-27T23:51:41.341Z,61.79
2022-12-27T23:54:14.286Z,61.91
2022-12-27T23:56:46.097Z,61.81
2022-12-27T23:59:14.039Z,61.96
